Flight Track Log - Related Links

Times and Time Zones

All times are in EDT time to prevent confusion due to time zone crossing. See the N577K flight status page for this flight to view local times or setup timezone preferences in your user account.

Time Position Orientation Groundspeed Altitude Reporting Facility
EDT Latitude Longitude Course Direction KTS MPH feet Rate Location/Type
Sat 08:51:29 AM 40.0328 -78.6806 94° East 161 185 7,400  Level Cleveland Center
Sat 08:52:09 AM 40.0322 -78.6439 91° East 164 189 7,500  Climbing Cleveland Center
Sat 08:52:29 AM 40.0308 -78.6258 96° East 160 184 7,400  Descending Cleveland Center
Sat 08:53:11 AM 40.0289 -78.5847 94° East 166 191 7,500  Climbing Cleveland Center
Sat 08:53:36 AM 40.0272 -78.5653 96° East 157 181 7,400  Descending Cleveland Center
Sat 08:54:12 AM 40.0261 -78.5306 92° East 157 181 7,500  Climbing Cleveland Center
Sat 08:54:37 AM 40.0233 -78.5075 99° East 156 180 7,400  Descending Cleveland Center
Sat 08:55:14 AM 40.0228 -78.4742 91° East 156 180 7,500  Climbing Cleveland Center
Sat 08:55:43 AM 40.0200 -78.4417 96° East 156 180 7,400  Descending Cleveland Center
Sat 08:56:15 AM 40.0194 -78.4178 92° East 157 181 7,500  Climbing Cleveland Center
Sat 08:56:44 AM 40.0158 -78.3867 99° East 158 182 7,400  Descending Cleveland Center
Sat 08:57:17 AM 40.0158 -78.3653 90° East 151 174 7,500  Climbing Cleveland Center
Sat 08:57:45 AM 40.0122 -78.3264 97° East 159 183 7,400  Descending Cleveland Center
Sat 08:58:18 AM 40.0119 -78.2958 91° East 160 184 7,500  Climbing Cleveland Center
Sat 08:58:51 AM 40.0086 -78.2631 98° East 158 182 7,400  Descending Cleveland Center
Sat 08:59:20 AM 40.0078 -78.2403 93° East 160 184 7,500  Climbing Cleveland Center
Sat 08:59:46 AM 40.0061 -78.2139 95° East 156 180 7,400  Descending Cleveland Center
Sat 09:00:22 AM 40.0039 -78.1847 96° East 156 180 7,500  Climbing Cleveland Center
Sat 09:00:40 AM 40.0036 -78.1617 91° East 157 181 7,400  Descending Cleveland Center
Sat 09:01:23 AM 40.0003 -78.1286 97° East 155 178 7,500  Climbing Cleveland Center
Sat 09:01:41 AM 39.9994 -78.1067 93° East 156 180 7,400  Descending Cleveland Center
Sat 09:02:25 AM 39.9978 -78.0711 93° East 158 182 7,500  Climbing Cleveland Center
Sat 09:02:42 AM 39.9956 -78.0464 97° East 157 181 7,400  Descending Cleveland Center
Sat 09:03:26 AM 39.9939 -78.0139 94° East 159 183 7,500 -113 Climbing Cleveland Center
Sat 09:04:28 AM 39.9908 -77.9578 94° East 156 180 7,200 -390 Descending Cleveland Center
Sat 09:05:29 AM 39.9850 -77.8836 96° East 167 192 6,700 -488 Descending Cleveland Center
Sat 09:06:31 AM 39.9819 -77.8233 94° East 169 194 6,200 -484 Descending Cleveland Center
Sat 09:07:33 AM 39.9775 -77.7639 96° East 166 191 5,700 -390 Descending Cleveland Center
Sat 09:08:34 AM 39.9744 -77.7061 94° East 162 186 5,400 -390 Descending Cleveland Center
Sat 09:09:36 AM 39.9700 -77.6508 96° East 158 182 4,900 -439 Descending Cleveland Center
Sat 09:10:37 AM 39.9669 -77.5892 94° East 164 189 4,500 -390 Descending Cleveland Center
Sat 09:11:39 AM 39.9625 -77.5297 96° East 166 191 4,100 -244 Descending Cleveland Center
Sat 09:12:40 AM 39.9583 -77.4728 95° East 162 186 4,000 -49 Descending Cleveland Center
Sat 09:13:42 AM 39.9544 -77.4181 95° East 158 182 4,000 -97 Level Cleveland Center
Sat 09:14:44 AM 39.9500 -77.3550 95° East 152 175 3,800 -194 Descending Cleveland Center

Login

Don't have an account? Register now (free) for customized features, flight alerts, and more!